createdAt,value
2022-11-20T00:00:10.466Z,19.50
2022-11-20T00:00:41.854Z,19.52
2022-11-20T00:01:13.239Z,19.51
2022-11-20T00:01:44.685Z,19.50
2022-11-20T00:02:16.154Z,19.50
2022-11-20T00:02:47.747Z,19.50
2022-11-20T00:03:19.147Z,19.50
2022-11-20T00:03:50.539Z,19.49
2022-11-20T00:04:21.943Z,19.49
2022-11-20T00:04:53.341Z,19.50
2022-11-20T00:05:24.730Z,19.49
2022-11-20T00:05:56.120Z,19.49
2022-11-20T00:06:27.505Z,19.49
2022-11-20T00:06:58.935Z,19.49
2022-11-20T00:07:30.390Z,19.48
2022-11-20T00:08:01.851Z,19.47
2022-11-20T00:08:33.270Z,19.48
2022-11-20T00:09:04.660Z,19.48
2022-11-20T00:09:36.065Z,19.49
2022-11-20T00:10:07.784Z,19.47
2022-11-20T00:10:39.172Z,19.47
2022-11-20T00:11:15.478Z,19.45
2022-11-20T00:11:47.323Z,19.46
2022-11-20T00:12:18.713Z,19.46
2022-11-20T00:12:50.115Z,19.46
2022-11-20T00:13:21.586Z,19.46
2022-11-20T00:13:52.978Z,19.45
2022-11-20T00:14:24.385Z,19.45
2022-11-20T00:14:55.800Z,19.45
2022-11-20T00:15:27.192Z,19.42
2022-11-20T00:15:58.591Z,19.45
2022-11-20T00:16:29.981Z,19.45
2022-11-20T00:17:01.383Z,19.46
2022-11-20T00:17:32.778Z,19.44
2022-11-20T00:18:04.187Z,19.44
2022-11-20T00:18:35.654Z,19.45
2022-11-20T00:19:07.063Z,19.44
2022-11-20T00:19:38.456Z,19.43
2022-11-20T00:20:09.887Z,19.42
2022-11-20T00:20:41.295Z,19.42
2022-11-20T00:21:12.699Z,19.43
2022-11-20T00:21:44.113Z,19.42
2022-11-20T00:22:15.520Z,19.43
2022-11-20T00:22:46.909Z,19.42
2022-11-20T00:23:18.314Z,19.44
2022-11-20T00:23:49.823Z,19.43
2022-11-20T00:24:21.219Z,19.42
2022-11-20T00:24:52.621Z,19.41
2022-11-20T00:25:24.020Z,19.40
2022-11-20T00:25:55.436Z,19.39
2022-11-20T00:26:26.834Z,19.38
2022-11-20T00:26:58.227Z,19.38
2022-11-20T00:27:29.623Z,19.37
2022-11-20T00:28:01.120Z,19.40
2022-11-20T00:28:32.534Z,19.38
2022-11-20T00:29:04.086Z,19.40
2022-11-20T00:29:35.482Z,19.39
2022-11-20T00:30:09.104Z,19.38
2022-11-20T00:30:42.503Z,19.39
2022-11-20T00:31:13.896Z,19.39
2022-11-20T00:31:45.286Z,19.39
2022-11-20T00:32:16.687Z,19.36
2022-11-20T00:32:48.085Z,19.36
2022-11-20T00:33:19.480Z,19.35
2022-11-20T00:33:50.896Z,19.35
2022-11-20T00:34:22.441Z,19.36
2022-11-20T00:34:53.836Z,19.37
2022-11-20T00:35:25.257Z,19.36
2022-11-20T00:35:56.683Z,19.37
2022-11-20T00:36:28.077Z,19.38
2022-11-20T00:36:59.471Z,19.37
2022-11-20T00:37:30.864Z,19.36
2022-11-20T00:38:02.258Z,19.37
2022-11-20T00:38:33.647Z,19.34
2022-11-20T00:39:05.040Z,19.35
2022-11-20T00:39:36.499Z,19.36
2022-11-20T00:40:07.901Z,19.35
2022-11-20T00:40:39.294Z,19.34
2022-11-20T00:41:10.705Z,19.33
2022-11-20T00:41:42.109Z,19.35
2022-11-20T00:42:13.501Z,19.33
2022-11-20T00:42:44.897Z,19.32
2022-11-20T00:43:16.294Z,19.31
2022-11-20T00:43:47.701Z,19.32
2022-11-20T00:44:19.113Z,19.32
2022-11-20T00:44:50.581Z,19.34
2022-11-20T00:45:21.966Z,19.34
2022-11-20T00:45:53.372Z,19.33
2022-11-20T00:46:24.781Z,19.33
2022-11-20T00:46:56.171Z,19.33
2022-11-20T00:47:27.568Z,19.33
2022-11-20T00:47:58.975Z,19.31
2022-11-20T00:48:30.447Z,19.32
2022-11-20T00:49:01.836Z,19.32
2022-11-20T00:49:33.226Z,19.31
2022-11-20T00:50:04.734Z,19.31
2022-11-20T00:50:36.123Z,19.31
2022-11-20T00:51:07.528Z,19.31
2022-11-20T00:51:38.929Z,19.31
2022-11-20T00:52:10.372Z,19.31
2022-11-20T00:52:41.765Z,19.30
2022-11-20T00:53:13.162Z,19.31
2022-11-20T00:53:44.552Z,19.32
2022-11-20T00:54:15.951Z,19.29
2022-11-20T00:54:47.346Z,19.30
2022-11-20T00:55:18.899Z,19.31
2022-11-20T00:55:50.285Z,19.31
2022-11-20T00:56:21.679Z,19.30
2022-11-20T00:56:53.142Z,19.31
2022-11-20T00:57:24.534Z,19.30
2022-11-20T00:57:55.924Z,19.30
2022-11-20T00:58:27.310Z,19.30
2022-11-20T00:58:58.715Z,19.29
2022-11-20T00:59:30.107Z,19.29
2022-11-20T01:00:01.510Z,19.29
2022-11-20T01:00:33.051Z,19.28
2022-11-20T01:01:04.485Z,19.28
2022-11-20T01:01:35.907Z,19.27
2022-11-20T01:02:07.338Z,19.28
2022-11-20T01:02:38.727Z,19.28
2022-11-20T01:03:10.141Z,19.28
2022-11-20T01:03:41.532Z,19.27
2022-11-20T01:04:12.924Z,19.28
2022-11-20T01:04:44.316Z,19.28
2022-11-20T01:05:15.755Z,19.27
2022-11-20T01:05:47.227Z,19.29
2022-11-20T01:06:18.623Z,19.28
2022-11-20T01:06:50.021Z,19.27
2022-11-20T01:07:21.468Z,19.28
2022-11-20T01:07:52.908Z,19.26
2022-11-20T01:08:24.304Z,19.26
2022-11-20T01:08:55.696Z,19.26
2022-11-20T01:09:27.095Z,19.27
2022-11-20T01:09:58.495Z,19.26
2022-11-20T01:10:29.897Z,19.25
2022-11-20T01:11:01.379Z,19.26
2022-11-20T01:11:32.785Z,19.25
2022-11-20T01:12:04.179Z,19.25
2022-11-20T01:12:35.570Z,19.25
2022-11-20T01:13:06.958Z,19.24
2022-11-20T01:13:38.349Z,19.25
2022-11-20T01:14:09.759Z,19.21
2022-11-20T01:14:41.146Z,19.23
2022-11-20T01:15:12.539Z,19.24
2022-11-20T01:15:43.942Z,19.24
2022-11-20T01:16:15.483Z,19.24
2022-11-20T01:16:46.884Z,19.23
2022-11-20T01:17:18.275Z,19.24
2022-11-20T01:17:49.671Z,19.22
2022-11-20T01:18:21.064Z,19.23
2022-11-20T01:18:52.475Z,19.23
2022-11-20T01:19:24.363Z,19.22
2022-11-20T01:19:56.130Z,19.22
2022-11-20T01:20:27.531Z,19.21
2022-11-20T01:20:58.974Z,19.21
2022-11-20T01:21:30.379Z,19.21
2022-11-20T01:22:01.795Z,19.21
2022-11-20T01:22:33.197Z,19.20
2022-11-20T01:23:04.602Z,19.22
2022-11-20T01:23:35.990Z,19.21
2022-11-20T01:24:07.401Z,19.22
2022-11-20T01:24:38.800Z,19.21
2022-11-20T01:25:10.186Z,19.21
2022-11-20T01:25:41.573Z,19.20
2022-11-20T01:26:13.029Z,19.21
2022-11-20T01:26:44.459Z,19.20
2022-11-20T01:27:15.854Z,19.21
2022-11-20T01:27:47.256Z,19.20
2022-11-20T01:28:18.651Z,19.18
2022-11-20T01:28:50.049Z,19.19
2022-11-20T01:29:21.679Z,19.20
2022-11-20T01:29:56.895Z,19.18
2022-11-20T01:30:31.222Z,19.17
2022-11-20T01:31:02.635Z,19.17
2022-11-20T01:31:34.168Z,19.18
2022-11-20T01:32:05.562Z,19.17
2022-11-20T01:32:36.967Z,19.18
2022-11-20T01:33:08.364Z,19.17
2022-11-20T01:33:39.783Z,19.16
2022-11-20T01:34:11.169Z,19.16
2022-11-20T01:34:42.564Z,19.17
2022-11-20T01:35:13.954Z,19.16
2022-11-20T01:35:45.377Z,19.17
2022-11-20T01:36:16.791Z,19.16
2022-11-20T01:36:48.322Z,19.16
2022-11-20T01:37:19.714Z,19.16
2022-11-20T01:37:51.122Z,19.16
2022-11-20T01:38:22.513Z,19.16
2022-11-20T01:38:53.904Z,19.16
2022-11-20T01:39:25.472Z,19.15
2022-11-20T01:39:56.962Z,19.14
2022-11-20T01:40:28.482Z,19.15
2022-11-20T01:40:59.877Z,19.14
2022-11-20T01:41:31.276Z,19.14
2022-11-20T01:42:08.417Z,19.14
2022-11-20T01:42:41.196Z,19.12
2022-11-20T01:43:12.591Z,19.13
2022-11-20T01:43:43.983Z,19.13
2022-11-20T01:44:15.374Z,19.13
2022-11-20T01:44:46.790Z,19.14
2022-11-20T01:45:18.204Z,19.13
2022-11-20T01:45:49.604Z,19.13
2022-11-20T01:46:21.007Z,19.12
2022-11-20T01:46:52.391Z,19.11
2022-11-20T01:47:23.908Z,19.10
2022-11-20T01:47:55.298Z,19.12
2022-11-20T01:48:26.705Z,19.11
2022-11-20T01:48:58.094Z,19.11
2022-11-20T01:49:29.480Z,19.10
2022-11-20T01:50:00.869Z,19.11
2022-11-20T01:50:32.273Z,19.11
2022-11-20T01:51:03.670Z,19.11
2022-11-20T01:51:35.064Z,19.10
2022-11-20T01:52:06.493Z,19.11
2022-11-20T01:52:37.977Z,19.10
2022-11-20T01:53:09.368Z,19.10
2022-11-20T01:53:40.772Z,19.09
2022-11-20T01:54:12.160Z,19.10
2022-11-20T01:54:43.554Z,19.09
2022-11-20T01:55:14.959Z,19.09
2022-11-20T01:55:46.400Z,19.08
2022-11-20T01:56:17.836Z,19.08
2022-11-20T01:56:49.230Z,19.07
2022-11-20T01:57:20.619Z,19.07
2022-11-20T01:57:52.166Z,19.06
2022-11-20T01:58:23.575Z,19.06
2022-11-20T01:58:54.963Z,19.07
2022-11-20T01:59:26.367Z,19.06
2022-11-20T01:59:57.763Z,19.06
2022-11-20T02:00:29.172Z,19.06
2022-11-20T02:01:00.658Z,19.06
2022-11-20T02:01:32.177Z,19.05
2022-11-20T02:02:03.601Z,19.05
2022-11-20T02:02:35.017Z,19.05
2022-11-20T02:03:06.523Z,19.06
2022-11-20T02:03:37.931Z,19.05
2022-11-20T02:04:09.355Z,19.05
2022-11-20T02:04:40.772Z,19.04
2022-11-20T02:05:12.185Z,19.04
2022-11-20T02:05:43.602Z,19.03
2022-11-20T02:06:15.030Z,19.04
2022-11-20T02:06:46.446Z,19.02
2022-11-20T02:07:17.897Z,19.03
2022-11-20T02:07:49.385Z,19.03
2022-11-20T02:08:20.784Z,19.04
2022-11-20T02:08:52.191Z,19.03
2022-11-20T02:09:23.791Z,19.03
2022-11-20T02:09:58.728Z,19.03
2022-11-20T02:10:30.438Z,19.03
2022-11-20T02:11:01.830Z,19.01
2022-11-20T02:11:33.232Z,19.02
2022-11-20T02:12:04.629Z,19.01
2022-11-20T02:12:36.027Z,19.01
2022-11-20T02:13:07.507Z,19.01
2022-11-20T02:13:38.917Z,19.01
2022-11-20T02:14:10.326Z,19.02
2022-11-20T02:14:41.724Z,19.01
2022-11-20T02:15:13.120Z,19.00
2022-11-20T02:15:44.511Z,19.00
2022-11-20T02:16:15.907Z,18.98
2022-11-20T02:16:47.296Z,19.00
2022-11-20T02:17:18.719Z,18.98
2022-11-20T02:17:50.119Z,18.98
2022-11-20T02:18:21.776Z,18.99
2022-11-20T02:18:53.174Z,18.99
2022-11-20T02:19:24.575Z,19.00
2022-11-20T02:19:55.997Z,19.00
2022-11-20T02:20:27.429Z,18.99
2022-11-20T02:20:58.815Z,18.98
2022-11-20T02:21:30.219Z,18.98
2022-11-20T02:22:01.617Z,18.99
2022-11-20T02:22:33.004Z,18.97
2022-11-20T02:23:04.405Z,18.99
2022-11-20T02:23:35.935Z,18.98
2022-11-20T02:24:07.332Z,18.98
2022-11-20T02:24:38.726Z,18.98
2022-11-20T02:25:10.110Z,18.98
2022-11-20T02:25:41.510Z,18.97
2022-11-20T02:26:12.909Z,18.97
2022-11-20T02:26:44.381Z,18.98
2022-11-20T02:27:15.790Z,18.97
2022-11-20T02:27:47.189Z,18.97
2022-11-20T02:28:18.588Z,18.97
2022-11-20T02:28:50.029Z,18.96
2022-11-20T02:29:21.583Z,18.97
2022-11-20T02:29:53.229Z,18.95
2022-11-20T02:30:24.628Z,18.96
2022-11-20T02:30:56.029Z,18.95
2022-11-20T02:31:27.462Z,18.95
2022-11-20T02:31:58.870Z,18.96
2022-11-20T02:32:30.265Z,18.96
2022-11-20T02:33:01.651Z,18.96
2022-11-20T02:33:33.042Z,18.95
2022-11-20T02:34:04.543Z,18.95
2022-11-20T02:34:35.936Z,18.94
2022-11-20T02:35:07.337Z,18.95
2022-11-20T02:35:38.730Z,18.95
2022-11-20T02:36:10.139Z,18.94
2022-11-20T02:36:41.542Z,18.95
2022-11-20T02:37:12.941Z,18.95
2022-11-20T02:37:44.340Z,18.93
2022-11-20T02:38:15.727Z,18.93
2022-11-20T02:38:47.140Z,18.93
2022-11-20T02:39:18.918Z,18.95
2022-11-20T02:39:50.512Z,18.94
2022-11-20T02:40:21.909Z,18.94
2022-11-20T02:40:55.659Z,18.94
2022-11-20T02:41:27.371Z,18.92
2022-11-20T02:41:58.768Z,18.93
2022-11-20T02:42:30.155Z,18.95
2022-11-20T02:43:01.556Z,18.93
2022-11-20T02:43:32.961Z,18.93
2022-11-20T02:44:04.368Z,18.92
2022-11-20T02:44:35.835Z,18.93
2022-11-20T02:45:07.222Z,18.92
2022-11-20T02:45:38.615Z,18.92
2022-11-20T02:46:10.012Z,18.90
2022-11-20T02:46:41.413Z,18.91
2022-11-20T02:47:12.823Z,18.91
2022-11-20T02:47:44.223Z,18.92
2022-11-20T02:48:15.625Z,18.91
2022-11-20T02:48:47.021Z,18.90
2022-11-20T02:49:18.707Z,18.89
2022-11-20T02:49:50.198Z,18.90
2022-11-20T02:50:21.594Z,18.90
2022-11-20T02:50:52.996Z,18.90
2022-11-20T02:51:24.393Z,18.90
2022-11-20T02:51:55.785Z,18.90
2022-11-20T02:52:27.203Z,18.89
2022-11-20T02:52:58.596Z,18.90
2022-11-20T02:53:30.000Z,18.89
2022-11-20T02:54:01.401Z,18.89
2022-11-20T02:54:32.830Z,18.89
2022-11-20T02:55:04.221Z,18.89
2022-11-20T02:55:35.627Z,18.88
2022-11-20T02:56:07.014Z,18.87
2022-11-20T02:56:38.427Z,18.88
2022-11-20T02:57:09.839Z,18.88
2022-11-20T02:57:41.236Z,18.87
2022-11-20T02:58:12.640Z,18.87
2022-11-20T02:58:44.041Z,18.88
2022-11-20T02:59:15.422Z,18.88
2022-11-20T02:59:47.015Z,18.87
2022-11-20T03:00:18.411Z,18.88
2022-11-20T03:00:49.794Z,18.86
2022-11-20T03:01:21.211Z,18.88
2022-11-20T03:01:52.623Z,18.87
2022-11-20T03:02:24.016Z,18.86
2022-11-20T03:02:55.412Z,18.87
2022-11-20T03:03:26.807Z,18.86
2022-11-20T03:03:58.230Z,18.85
2022-11-20T03:04:29.658Z,18.85
2022-11-20T03:05:01.461Z,18.85
2022-11-20T03:05:32.861Z,18.84
2022-11-20T03:06:04.257Z,18.85
2022-11-20T03:06:35.665Z,18.85
2022-11-20T03:07:07.096Z,18.84
2022-11-20T03:07:38.613Z,18.84
2022-11-20T03:08:10.054Z,18.85
2022-11-20T03:08:41.444Z,18.83
2022-11-20T03:09:12.837Z,18.83
2022-11-20T03:09:44.233Z,18.84
2022-11-20T03:10:15.728Z,18.83
2022-11-20T03:10:47.124Z,18.84
2022-11-20T03:11:18.527Z,18.83
2022-11-20T03:11:49.931Z,18.82
2022-11-20T03:12:21.338Z,18.83
2022-11-20T03:12:52.738Z,18.82
2022-11-20T03:13:24.128Z,18.83
2022-11-20T03:13:55.521Z,18.82
2022-11-20T03:14:26.940Z,18.81
2022-11-20T03:14:58.328Z,18.81
2022-11-20T03:15:29.779Z,18.81
2022-11-20T03:16:01.203Z,18.81
2022-11-20T03:16:32.596Z,18.82
2022-11-20T03:17:03.995Z,18.81
2022-11-20T03:17:35.412Z,18.81
2022-11-20T03:18:06.874Z,18.81
2022-11-20T03:18:38.284Z,18.81
2022-11-20T03:19:09.671Z,18.81
2022-11-20T03:19:41.107Z,18.80
2022-11-20T03:20:12.497Z,18.81
2022-11-20T03:20:43.966Z,18.79
2022-11-20T03:21:15.382Z,18.79
2022-11-20T03:21:46.788Z,18.79
2022-11-20T03:22:18.203Z,18.80
2022-11-20T03:22:49.598Z,18.79
2022-11-20T03:23:21.001Z,18.78
2022-11-20T03:23:52.407Z,18.79
2022-11-20T03:24:23.831Z,18.78
2022-11-20T03:24:55.239Z,18.76
2022-11-20T03:25:26.622Z,18.78
2022-11-20T03:25:58.110Z,18.79
2022-11-20T03:26:29.500Z,18.78
2022-11-20T03:27:00.907Z,18.78
2022-11-20T03:27:32.305Z,18.76
2022-11-20T03:28:03.697Z,18.77
2022-11-20T03:28:35.102Z,18.76
2022-11-20T03:29:06.502Z,18.77
2022-11-20T03:29:37.891Z,18.77
2022-11-20T03:30:09.299Z,18.76
2022-11-20T03:30:40.715Z,18.76
2022-11-20T03:31:12.279Z,18.75
2022-11-20T03:31:43.667Z,18.74
2022-11-20T03:32:15.056Z,18.74
2022-11-20T03:32:46.447Z,18.74
2022-11-20T03:33:17.850Z,18.73
2022-11-20T03:33:49.239Z,18.73
2022-11-20T03:34:20.636Z,18.73
2022-11-20T03:34:52.047Z,18.73
2022-11-20T03:35:23.457Z,18.74
2022-11-20T03:35:54.876Z,18.73
2022-11-20T03:36:26.326Z,18.74
2022-11-20T03:36:57.711Z,18.74
2022-11-20T03:37:29.130Z,18.71
2022-11-20T03:38:00.546Z,18.72
2022-11-20T03:38:31.947Z,18.72
2022-11-20T03:39:03.361Z,18.72
2022-11-20T03:39:34.767Z,18.72
2022-11-20T03:40:06.165Z,18.71
2022-11-20T03:40:37.557Z,18.71
2022-11-20T03:41:08.964Z,18.71
2022-11-20T03:41:40.492Z,18.71
2022-11-20T03:42:11.882Z,18.72
2022-11-20T03:42:43.277Z,18.72
2022-11-20T03:43:14.663Z,18.70
2022-11-20T03:43:46.058Z,18.72
2022-11-20T03:44:17.451Z,18.70
2022-11-20T03:44:48.841Z,18.71
2022-11-20T03:45:20.229Z,18.71
2022-11-20T03:45:51.622Z,18.71
2022-11-20T03:46:23.034Z,18.71
2022-11-20T03:46:54.471Z,18.71
2022-11-20T03:47:25.858Z,18.71
2022-11-20T03:47:57.245Z,18.70
2022-11-20T03:48:28.653Z,18.71
2022-11-20T03:49:00.065Z,18.71
2022-11-20T03:49:31.484Z,18.71
2022-11-20T03:50:02.894Z,18.71
2022-11-20T03:50:34.297Z,18.70
2022-11-20T03:51:05.688Z,18.71
2022-11-20T03:51:37.098Z,18.70
2022-11-20T03:52:08.529Z,18.71
2022-11-20T03:52:39.920Z,18.69
2022-11-20T03:53:11.311Z,18.69
2022-11-20T03:53:42.703Z,18.70
2022-11-20T03:54:14.086Z,18.69
2022-11-20T03:54:45.495Z,18.69
2022-11-20T03:55:16.910Z,18.68
2022-11-20T03:55:48.324Z,18.67
2022-11-20T03:56:19.711Z,18.67
2022-11-20T03:56:51.107Z,18.67
2022-11-20T03:57:22.590Z,18.67
2022-11-20T03:57:53.973Z,18.66
2022-11-20T03:58:25.385Z,18.66
2022-11-20T03:58:56.786Z,18.66
2022-11-20T03:59:28.175Z,18.67
2022-11-20T03:59:59.587Z,18.65
2022-11-20T04:00:31.000Z,18.64
2022-11-20T04:01:02.389Z,18.66
2022-11-20T04:01:33.834Z,18.65
2022-11-20T04:02:05.290Z,18.64
2022-11-20T04:02:36.838Z,18.64
2022-11-20T04:03:08.319Z,18.64
2022-11-20T04:03:39.725Z,18.64
2022-11-20T04:04:11.114Z,18.65
2022-11-20T04:04:42.505Z,18.64
2022-11-20T04:05:13.895Z,18.64
2022-11-20T04:05:45.295Z,18.64
2022-11-20T04:06:16.690Z,18.64
2022-11-20T04:06:48.098Z,18.63
2022-11-20T04:07:19.557Z,18.63
2022-11-20T04:07:51.200Z,18.63
2022-11-20T04:08:22.615Z,18.63
2022-11-20T04:08:54.237Z,18.63
2022-11-20T04:09:25.665Z,18.63
2022-11-20T04:09:57.054Z,18.63
2022-11-20T04:10:28.441Z,18.63
2022-11-20T04:10:59.840Z,18.63
2022-11-20T04:11:31.225Z,18.62
2022-11-20T04:12:02.628Z,18.61
2022-11-20T04:12:34.024Z,18.60
2022-11-20T04:13:05.473Z,18.61
2022-11-20T04:13:36.891Z,18.59
2022-11-20T04:14:08.280Z,18.60
2022-11-20T04:14:39.681Z,18.60
2022-11-20T04:15:11.073Z,18.60
2022-11-20T04:15:42.476Z,18.59
2022-11-20T04:16:13.910Z,18.59
2022-11-20T04:16:45.308Z,18.58
2022-11-20T04:17:16.708Z,18.59
2022-11-20T04:17:48.127Z,18.60
2022-11-20T04:18:19.734Z,18.58
2022-11-20T04:18:51.123Z,18.60
2022-11-20T04:19:22.732Z,18.59
2022-11-20T04:19:54.392Z,18.60
2022-11-20T04:20:25.792Z,18.58
2022-11-20T04:20:57.183Z,18.58
2022-11-20T04:21:28.573Z,18.58
2022-11-20T04:21:59.959Z,18.59
2022-11-20T04:22:31.374Z,18.57
2022-11-20T04:23:02.784Z,18.59
2022-11-20T04:23:34.299Z,18.59
2022-11-20T04:24:05.699Z,18.58
2022-11-20T04:24:37.095Z,18.58
2022-11-20T04:25:08.487Z,18.58
2022-11-20T04:25:39.889Z,18.59
2022-11-20T04:26:11.280Z,18.56
2022-11-20T04:26:42.662Z,18.56
2022-11-20T04:27:14.071Z,18.56
2022-11-20T04:27:45.466Z,18.56
2022-11-20T04:28:16.878Z,18.57
2022-11-20T04:28:48.364Z,18.56
2022-11-20T04:29:19.962Z,18.55
2022-11-20T04:29:51.609Z,18.55
2022-11-20T04:30:23.021Z,18.55
2022-11-20T04:30:54.437Z,18.55
2022-11-20T04:31:25.854Z,18.54
2022-11-20T04:31:57.243Z,18.54
2022-11-20T04:32:28.664Z,18.55
2022-11-20T04:33:00.224Z,18.55
2022-11-20T04:33:34.223Z,18.55
2022-11-20T04:34:06.027Z,18.54
2022-11-20T04:34:37.414Z,18.54
2022-11-20T04:35:08.807Z,18.55
2022-11-20T04:35:40.216Z,18.52
2022-11-20T04:36:11.608Z,18.53
2022-11-20T04:36:42.997Z,18.53
2022-11-20T04:37:14.391Z,18.53
2022-11-20T04:37:47.655Z,18.53
2022-11-20T04:38:19.052Z,18.53
2022-11-20T04:38:56.351Z,18.52
2022-11-20T04:39:28.455Z,18.51
2022-11-20T04:39:59.857Z,18.52
2022-11-20T04:40:31.251Z,18.50
2022-11-20T04:41:02.637Z,18.52
2022-11-20T04:41:34.051Z,18.53
2022-11-20T04:42:05.471Z,18.53
2022-11-20T04:42:36.858Z,18.53
2022-11-20T04:43:08.275Z,18.52
2022-11-20T04:43:39.687Z,18.52
2022-11-20T04:44:11.185Z,18.55
2022-11-20T04:44:42.594Z,18.53
2022-11-20T04:45:13.996Z,18.53
2022-11-20T04:45:45.388Z,18.50
2022-11-20T04:46:16.788Z,18.50
2022-11-20T04:46:48.201Z,18.51
2022-11-20T04:47:19.591Z,18.49
2022-11-20T04:47:50.975Z,18.49
2022-11-20T04:48:22.363Z,18.48
2022-11-20T04:48:53.754Z,18.48
2022-11-20T04:49:25.515Z,18.48
2022-11-20T04:49:57.087Z,18.50
2022-11-20T04:50:28.551Z,18.48
2022-11-20T04:50:59.952Z,18.47
2022-11-20T04:51:31.339Z,18.49
2022-11-20T04:52:02.740Z,18.48
2022-11-20T04:52:34.134Z,18.47
2022-11-20T04:53:05.529Z,18.48
2022-11-20T04:53:36.929Z,18.48
2022-11-20T04:54:08.323Z,18.46
2022-11-20T04:54:39.751Z,18.46
2022-11-20T04:55:11.159Z,18.48
2022-11-20T04:55:42.554Z,18.48
2022-11-20T04:56:13.952Z,18.47
2022-11-20T04:56:45.962Z,18.46
2022-11-20T04:57:17.362Z,18.47
2022-11-20T04:57:48.750Z,18.45
2022-11-20T04:58:20.163Z,18.46
2022-11-20T04:58:51.574Z,18.46
2022-11-20T04:59:23.335Z,18.46
2022-11-20T04:59:55.317Z,18.48
2022-11-20T05:00:27.020Z,18.46
2022-11-20T05:00:59.012Z,18.46
2022-11-20T05:01:30.457Z,18.44
2022-11-20T05:02:01.940Z,18.45
2022-11-20T05:02:33.415Z,18.46
2022-11-20T05:03:04.802Z,18.46
2022-11-20T05:03:41.019Z,18.46
2022-11-20T05:04:13.659Z,18.43
2022-11-20T05:04:45.051Z,18.44
2022-11-20T05:05:16.537Z,18.44
2022-11-20T05:05:47.940Z,18.46
2022-11-20T05:06:19.353Z,18.45
2022-11-20T05:06:50.769Z,18.45
2022-11-20T05:07:22.188Z,18.45
2022-11-20T05:07:53.632Z,18.46
2022-11-20T05:08:25.032Z,18.45
2022-11-20T05:08:56.428Z,18.45
2022-11-20T05:09:27.824Z,18.45
2022-11-20T05:09:59.231Z,18.45
2022-11-20T05:10:30.715Z,18.45
2022-11-20T05:11:02.114Z,18.44
2022-11-20T05:11:33.507Z,18.44
2022-11-20T05:12:04.909Z,18.45
2022-11-20T05:12:36.332Z,18.43
2022-11-20T05:13:07.835Z,18.44
2022-11-20T05:13:39.300Z,18.44
2022-11-20T05:14:10.747Z,18.45
2022-11-20T05:14:42.327Z,18.44
2022-11-20T05:15:13.761Z,18.44
2022-11-20T05:15:45.375Z,18.44
2022-11-20T05:16:16.882Z,18.41
2022-11-20T05:16:48.547Z,18.43
2022-11-20T05:17:19.936Z,18.43
2022-11-20T05:17:51.433Z,18.43
2022-11-20T05:18:22.835Z,18.43
2022-11-20T05:18:54.235Z,18.44
2022-11-20T05:19:25.671Z,18.41
2022-11-20T05:19:57.060Z,18.40
2022-11-20T05:20:28.455Z,18.39
2022-11-20T05:21:00.152Z,18.40
2022-11-20T05:21:31.549Z,18.41
2022-11-20T05:22:02.970Z,18.40
2022-11-20T05:22:34.363Z,18.41
2022-11-20T05:23:05.758Z,18.43
2022-11-20T05:23:37.161Z,18.42
2022-11-20T05:24:08.565Z,18.41
2022-11-20T05:24:39.954Z,18.40
2022-11-20T05:25:11.353Z,18.41
2022-11-20T05:25:42.738Z,18.42
2022-11-20T05:26:14.229Z,18.40
2022-11-20T05:26:45.635Z,18.40
2022-11-20T05:27:17.029Z,18.41
2022-11-20T05:27:48.428Z,18.41
2022-11-20T05:28:19.843Z,18.41
2022-11-20T05:28:51.240Z,18.40
2022-11-20T05:29:22.906Z,18.40
2022-11-20T05:29:54.504Z,18.39
2022-11-20T05:30:25.894Z,18.40
2022-11-20T05:30:57.281Z,18.40
2022-11-20T05:31:28.686Z,18.40
2022-11-20T05:32:00.091Z,18.41
2022-11-20T05:32:31.520Z,18.40
2022-11-20T05:33:02.932Z,18.39
2022-11-20T05:33:34.328Z,18.38
2022-11-20T05:34:05.719Z,18.38
2022-11-20T05:34:37.148Z,18.39
2022-11-20T05:35:08.557Z,18.40
2022-11-20T05:35:39.943Z,18.38
2022-11-20T05:36:11.417Z,18.39
2022-11-20T05:36:42.823Z,18.39
2022-11-20T05:37:14.216Z,18.39
2022-11-20T05:37:45.611Z,18.39
2022-11-20T05:38:17.054Z,18.39
2022-11-20T05:38:50.896Z,18.39
2022-11-20T05:39:23.246Z,18.39
2022-11-20T05:39:54.809Z,18.39
2022-11-20T05:40:26.194Z,18.39
2022-11-20T05:40:57.629Z,18.39
2022-11-20T05:41:29.152Z,18.39
2022-11-20T05:42:00.543Z,18.39
2022-11-20T05:42:31.933Z,18.39
2022-11-20T05:43:03.324Z,18.38
2022-11-20T05:43:34.735Z,18.38
2022-11-20T05:44:06.129Z,18.38
2022-11-20T05:44:37.548Z,18.38
2022-11-20T05:45:08.948Z,18.38
2022-11-20T05:45:40.341Z,18.37
2022-11-20T05:46:11.755Z,18.37
2022-11-20T05:46:43.202Z,18.35
2022-11-20T05:47:14.620Z,18.37
2022-11-20T05:47:46.043Z,18.37
2022-11-20T05:48:17.446Z,18.36
2022-11-20T05:48:48.862Z,18.37
2022-11-20T05:49:20.451Z,18.38
2022-11-20T05:49:52.060Z,18.37
2022-11-20T05:50:23.474Z,18.38
2022-11-20T05:50:54.872Z,18.37
2022-11-20T05:51:26.265Z,18.37
2022-11-20T05:51:57.699Z,18.38
2022-11-20T05:52:29.089Z,18.37
2022-11-20T05:53:00.511Z,18.37
2022-11-20T05:53:31.927Z,18.36
2022-11-20T05:54:03.320Z,18.36
2022-11-20T05:54:34.719Z,18.37
2022-11-20T05:55:06.116Z,18.37
2022-11-20T05:55:37.520Z,18.37
2022-11-20T05:56:08.919Z,18.37
2022-11-20T05:56:40.315Z,18.35
2022-11-20T05:57:11.845Z,18.35
2022-11-20T05:57:43.240Z,18.36
2022-11-20T05:58:14.638Z,18.35
2022-11-20T05:58:46.050Z,18.35
2022-11-20T05:59:17.449Z,18.36
2022-11-20T05:59:48.848Z,18.34
2022-11-20T06:00:20.263Z,18.35
2022-11-20T06:00:51.674Z,18.36
2022-11-20T06:01:23.076Z,18.34
2022-11-20T06:01:54.480Z,18.35
2022-11-20T06:02:26.022Z,18.34
2022-11-20T06:02:57.464Z,18.34
2022-11-20T06:03:28.901Z,18.34
2022-11-20T06:04:00.321Z,18.34
2022-11-20T06:04:31.741Z,18.36
2022-11-20T06:05:03.135Z,18.33
2022-11-20T06:05:34.531Z,18.34
2022-11-20T06:06:05.917Z,18.33
2022-11-20T06:06:37.334Z,18.34
2022-11-20T06:07:08.840Z,18.32
2022-11-20T06:07:40.418Z,18.32
2022-11-20T06:08:11.882Z,18.33
2022-11-20T06:08:43.288Z,18.33
2022-11-20T06:09:14.700Z,18.33
2022-11-20T06:09:46.102Z,18.32
2022-11-20T06:10:17.499Z,18.33
2022-11-20T06:10:48.902Z,18.33
2022-11-20T06:11:20.301Z,18.33
2022-11-20T06:11:51.696Z,18.33
2022-11-20T06:12:23.094Z,18.32
2022-11-20T06:12:54.556Z,18.32
2022-11-20T06:13:25.947Z,18.33
2022-11-20T06:13:57.334Z,18.32
2022-11-20T06:14:28.723Z,18.31
2022-11-20T06:15:00.121Z,18.32
2022-11-20T06:15:31.534Z,18.32
2022-11-20T06:16:02.923Z,18.32
2022-11-20T06:16:34.336Z,18.31
2022-11-20T06:17:05.730Z,18.31
2022-11-20T06:17:37.256Z,18.31
2022-11-20T06:18:08.648Z,18.31
2022-11-20T06:18:40.046Z,18.31
2022-11-20T06:19:11.431Z,18.31
2022-11-20T06:19:42.893Z,18.32
2022-11-20T06:20:14.279Z,18.32
2022-11-20T06:20:45.675Z,18.31
2022-11-20T06:21:17.064Z,18.31
2022-11-20T06:21:48.480Z,18.30
2022-11-20T06:22:19.883Z,18.30
2022-11-20T06:22:51.355Z,18.31
2022-11-20T06:23:22.762Z,18.30
2022-11-20T06:23:54.154Z,18.30
2022-11-20T06:24:25.552Z,18.30
2022-11-20T06:24:56.967Z,18.30
2022-11-20T06:25:28.357Z,18.30
2022-11-20T06:25:59.762Z,18.31
2022-11-20T06:26:31.158Z,18.30
2022-11-20T06:27:02.563Z,18.30
2022-11-20T06:27:33.965Z,18.30
2022-11-20T06:28:05.485Z,18.30
2022-11-20T06:28:36.875Z,18.30
2022-11-20T06:29:08.264Z,18.30
2022-11-20T06:29:39.663Z,18.29
2022-11-20T06:30:11.078Z,18.28
2022-11-20T06:30:42.468Z,18.29
2022-11-20T06:31:13.854Z,18.29
2022-11-20T06:31:45.269Z,18.29
2022-11-20T06:32:16.662Z,18.28
2022-11-20T06:32:48.213Z,18.29
2022-11-20T06:33:19.750Z,18.28
2022-11-20T06:33:51.142Z,18.29
2022-11-20T06:34:22.555Z,18.30
2022-11-20T06:34:53.947Z,18.29
2022-11-20T06:35:25.334Z,18.28
2022-11-20T06:36:00.004Z,18.28
2022-11-20T06:36:33.219Z,18.28
2022-11-20T06:37:04.612Z,18.28
2022-11-20T06:37:36.011Z,18.28
2022-11-20T06:38:07.411Z,18.28
2022-11-20T06:38:38.923Z,18.27
2022-11-20T06:39:10.411Z,18.28
2022-11-20T06:39:41.809Z,18.28
2022-11-20T06:40:13.208Z,18.28
2022-11-20T06:40:44.612Z,18.27
2022-11-20T06:41:16.009Z,18.28
2022-11-20T06:41:47.418Z,18.27
2022-11-20T06:42:18.851Z,18.27
2022-11-20T06:42:50.253Z,18.26
2022-11-20T06:43:21.661Z,18.26
2022-11-20T06:43:53.051Z,18.26
2022-11-20T06:44:24.438Z,18.27
2022-11-20T06:44:55.823Z,18.27
2022-11-20T06:45:27.212Z,18.26